createdAt,value
2022-10-04T00:01:42.549Z,3.47
2022-10-04T00:04:46.115Z,4.35
2022-10-04T00:07:51.106Z,3.78
2022-10-04T00:11:01.406Z,3.95
2022-10-04T00:14:08.515Z,4.10
2022-10-04T00:17:13.761Z,3.38
2022-10-04T00:20:33.770Z,4.22
2022-10-04T00:23:35.006Z,4.10
2022-10-04T00:26:36.238Z,3.83
2022-10-04T00:29:39.150Z,3.42
2022-10-04T00:32:40.416Z,3.83
2022-10-04T00:35:47.088Z,2.88
2022-10-04T00:39:06.722Z,3.08
2022-10-04T00:42:31.906Z,4.28
2022-10-04T00:45:35.897Z,4.13
2022-10-04T00:48:37.206Z,3.35
2022-10-04T00:51:43.533Z,3.25
2022-10-04T00:54:50.281Z,3.08
2022-10-04T00:57:53.989Z,3.05
2022-10-04T01:00:57.376Z,3.45
2022-10-04T01:04:00.705Z,3.40
2022-10-04T01:07:04.043Z,3.05
2022-10-04T01:10:09.124Z,3.40
2022-10-04T01:13:16.038Z,2.63
2022-10-04T01:16:19.490Z,3.10
2022-10-04T01:19:24.385Z,2.80
2022-10-04T01:25:47.082Z,2.70
2022-10-04T01:28:48.487Z,2.72
2022-10-04T01:31:50.724Z,2.85
2022-10-04T01:34:52.116Z,2.65
2022-10-04T01:37:54.149Z,2.67
2022-10-04T01:40:59.868Z,2.63
2022-10-04T01:44:03.254Z,3.20
2022-10-04T01:47:08.380Z,2.75
2022-10-04T01:50:15.825Z,3.30
2022-10-04T01:53:19.676Z,2.90
2022-10-04T01:56:23.276Z,2.50
2022-10-04T01:59:26.975Z,2.80
2022-10-04T02:02:36.240Z,3.28
2022-10-04T02:05:43.324Z,3.08
2022-10-04T02:08:47.266Z,2.75
2022-10-04T02:11:53.009Z,3.05
2022-10-04T02:14:55.573Z,2.80
2022-10-04T02:17:57.080Z,2.90
2022-10-04T02:20:58.785Z,3.13
2022-10-04T02:24:00.201Z,2.95
2022-10-04T02:27:01.568Z,2.60
2022-10-04T02:30:07.649Z,2.08
2022-10-04T02:33:10.382Z,3.13
2022-10-04T02:36:13.103Z,3.30
2022-10-04T02:39:23.497Z,3.22
2022-10-04T02:42:24.742Z,2.47
2022-10-04T02:45:33.406Z,2.97
2022-10-04T02:48:47.278Z,2.42
2022-10-04T02:51:54.451Z,2.83
2022-10-04T02:54:55.849Z,2.72
2022-10-04T02:57:58.364Z,4.93
2022-10-04T03:01:00.296Z,2.53
2022-10-04T03:04:02.428Z,3.30
2022-10-04T03:07:06.412Z,3.20
2022-10-04T03:10:12.345Z,3.22
2022-10-04T03:13:14.072Z,2.92
2022-10-04T03:16:16.013Z,3.35
2022-10-04T03:19:18.574Z,2.35
2022-10-04T03:22:20.217Z,3.47
2022-10-04T03:25:28.821Z,3.63
2022-10-04T03:28:30.252Z,3.70
2022-10-04T03:31:33.265Z,3.55
2022-10-04T03:34:36.962Z,3.30
2022-10-04T03:37:38.351Z,3.00
2022-10-04T03:40:41.778Z,3.38
2022-10-04T03:43:45.268Z,3.47
2022-10-04T03:46:46.925Z,2.83
2022-10-04T03:49:50.978Z,3.22
2022-10-04T03:52:54.606Z,2.95
2022-10-04T03:55:57.088Z,2.60
2022-10-04T03:59:01.705Z,2.88
2022-10-04T04:02:02.996Z,2.90
2022-10-04T04:05:22.080Z,2.83
2022-10-04T04:08:33.771Z,2.10
2022-10-04T04:11:35.602Z,4.00
2022-10-04T04:14:38.850Z,3.47
2022-10-04T04:17:45.471Z,3.13
2022-10-04T04:20:47.754Z,2.75
2022-10-04T04:23:51.307Z,3.92
2022-10-04T04:27:01.386Z,3.58
2022-10-04T04:30:02.973Z,3.13
2022-10-04T04:33:10.106Z,2.78
2022-10-04T04:36:12.354Z,2.95
2022-10-04T04:39:32.372Z,3.35
2022-10-04T04:42:34.801Z,2.65
2022-10-04T04:45:36.480Z,3.22
2022-10-04T04:48:37.812Z,3.80
2022-10-04T04:51:39.834Z,3.05
2022-10-04T04:54:41.251Z,3.20
2022-10-04T04:57:44.846Z,2.60
2022-10-04T05:00:49.362Z,3.25
2022-10-04T05:04:08.911Z,3.33
2022-10-04T05:07:18.020Z,2.63
2022-10-04T05:10:34.662Z,2.75
2022-10-04T05:13:40.130Z,2.63
2022-10-04T05:16:50.627Z,3.08
2022-10-04T05:19:55.891Z,3.35
2022-10-04T05:22:58.061Z,3.22
2022-10-04T05:26:00.323Z,3.15
2022-10-04T05:29:06.907Z,3.88
2022-10-04T05:32:11.044Z,3.25
2022-10-04T05:35:17.172Z,3.30
2022-10-04T05:38:18.397Z,3.33
2022-10-04T05:41:32.771Z,3.65
2022-10-04T05:44:36.331Z,4.53
2022-10-04T05:47:40.698Z,4.50
2022-10-04T05:50:43.526Z,3.85
2022-10-04T05:53:45.559Z,3.33
2022-10-04T05:57:00.426Z,2.97
2022-10-04T06:00:13.113Z,3.83
2022-10-04T06:03:17.567Z,3.28
2022-10-04T06:06:31.175Z,3.85
2022-10-04T06:09:51.335Z,3.85
2022-10-04T06:13:11.194Z,3.80
2022-10-04T06:16:20.103Z,3.33
2022-10-04T06:19:21.378Z,3.42
2022-10-04T06:22:23.638Z,2.83
2022-10-04T06:25:37.334Z,3.92
2022-10-04T06:28:46.542Z,3.80
2022-10-04T06:32:20.325Z,2.75
2022-10-04T06:35:37.014Z,3.13
2022-10-04T06:38:38.225Z,3.72
2022-10-04T06:41:51.213Z,3.40
2022-10-04T06:44:52.453Z,3.80
2022-10-04T06:48:02.618Z,4.40
2022-10-04T06:51:22.399Z,4.35
2022-10-04T06:54:31.895Z,3.50
2022-10-04T06:57:59.976Z,4.38
2022-10-04T07:01:23.958Z,4.43
2022-10-04T07:04:28.010Z,3.03
2022-10-04T07:07:38.364Z,3.22
2022-10-04T07:10:51.899Z,3.67
2022-10-04T07:13:57.676Z,3.53
2022-10-04T07:17:03.247Z,2.90
2022-10-04T07:20:05.796Z,3.22
2022-10-04T07:23:14.151Z,3.00
2022-10-04T07:26:44.896Z,2.78
2022-10-04T07:29:47.066Z,3.85
2022-10-04T07:32:50.644Z,3.25
2022-10-04T07:35:54.233Z,4.20
2022-10-04T07:39:07.429Z,3.80
2022-10-04T07:42:12.410Z,3.70
2022-10-04T07:45:19.448Z,3.65
2022-10-04T07:48:23.435Z,4.60
2022-10-04T07:51:41.259Z,4.55
2022-10-04T07:55:07.836Z,4.13
2022-10-04T07:58:18.016Z,4.15
2022-10-04T08:01:25.637Z,5.35
2022-10-04T08:04:28.308Z,5.40
2022-10-04T08:07:35.712Z,4.32
2022-10-04T08:10:42.914Z,5.55
2022-10-04T08:13:50.524Z,5.88
2022-10-04T08:16:51.779Z,4.10
2022-10-04T08:19:58.758Z,4.22
2022-10-04T08:23:06.438Z,3.95
2022-10-04T08:26:15.246Z,3.40
2022-10-04T08:29:34.891Z,3.85
2022-10-04T08:32:45.322Z,3.25
2022-10-04T08:36:03.110Z,3.60
2022-10-04T08:39:06.577Z,3.13
2022-10-04T08:42:25.520Z,3.05
2022-10-04T08:45:32.705Z,3.60
2022-10-04T08:48:40.346Z,3.10
2022-10-04T08:51:41.609Z,3.25
2022-10-04T08:55:00.175Z,3.33
2022-10-04T08:58:16.770Z,3.72
2022-10-04T09:01:25.255Z,3.10
2022-10-04T09:04:46.798Z,3.03
2022-10-04T09:07:48.754Z,3.42
2022-10-04T09:11:18.003Z,3.17
2022-10-04T09:14:38.735Z,3.25
2022-10-04T09:17:58.626Z,3.90
2022-10-04T09:21:18.570Z,3.88
2022-10-04T09:24:19.805Z,3.55
2022-10-04T09:27:53.696Z,3.30
2022-10-04T09:30:59.264Z,3.80
2022-10-04T09:34:25.994Z,4.30
2022-10-04T09:37:41.337Z,3.10
2022-10-04T09:40:52.264Z,4.00
2022-10-04T09:43:56.344Z,4.35
2022-10-04T09:47:04.355Z,3.38
2022-10-04T09:50:09.265Z,4.97
2022-10-04T09:53:21.673Z,4.00
2022-10-04T09:56:32.032Z,4.82
2022-10-04T09:59:39.589Z,4.53
2022-10-04T10:02:47.001Z,5.50
2022-10-04T10:05:48.261Z,4.72
2022-10-04T10:08:49.497Z,5.00
2022-10-04T10:12:27.950Z,4.50
2022-10-04T10:15:44.812Z,4.57
2022-10-04T10:18:46.398Z,4.00
2022-10-04T10:21:54.066Z,4.63
2022-10-04T10:25:07.569Z,5.68
2022-10-04T10:28:29.059Z,4.40
2022-10-04T10:31:39.394Z,4.45
2022-10-04T10:34:46.691Z,4.82
2022-10-04T10:38:04.831Z,4.60
2022-10-04T10:41:19.187Z,3.85
2022-10-04T10:44:26.532Z,4.10
2022-10-04T10:47:33.883Z,3.88
2022-10-04T10:50:58.410Z,3.90
2022-10-04T10:54:18.545Z,4.03
2022-10-04T10:57:22.609Z,4.03
2022-10-04T11:00:25.718Z,3.53
2022-10-04T11:03:40.159Z,3.97
2022-10-04T11:06:50.781Z,3.30
2022-10-04T11:10:07.374Z,3.40
2022-10-04T11:13:29.808Z,3.28
2022-10-04T11:16:41.315Z,3.20
2022-10-04T11:19:54.745Z,3.70
2022-10-04T11:23:08.864Z,2.90
2022-10-04T11:26:28.621Z,3.45
2022-10-04T11:29:32.933Z,2.75
2022-10-04T11:32:54.730Z,2.50
2022-10-04T11:36:08.380Z,2.78
2022-10-04T11:39:30.206Z,2.80
2022-10-04T11:42:49.361Z,2.85
2022-10-04T11:46:11.039Z,2.42
2022-10-04T11:49:18.541Z,2.28
2022-10-04T11:52:49.417Z,2.20
2022-10-04T11:56:10.070Z,2.13
2022-10-04T11:59:37.378Z,2.22
2022-10-04T12:02:44.941Z,2.13
2022-10-04T12:05:55.582Z,2.30
2022-10-04T12:08:56.877Z,2.00
2022-10-04T12:12:36.024Z,2.33
2022-10-04T12:15:42.630Z,2.20
2022-10-04T12:18:51.615Z,2.45
2022-10-04T12:22:11.861Z,2.45
2022-10-04T12:25:15.880Z,2.45
2022-10-04T12:28:17.302Z,2.80
2022-10-04T12:31:30.685Z,2.70
2022-10-04T12:34:32.012Z,2.42
2022-10-04T12:37:38.770Z,2.45
2022-10-04T12:40:49.247Z,2.40
2022-10-04T12:44:09.673Z,2.38
2022-10-04T12:47:29.910Z,2.55
2022-10-04T12:50:39.321Z,2.45
2022-10-04T12:57:00.507Z,2.60
2022-10-04T13:00:02.203Z,2.70
2022-10-04T13:03:09.388Z,2.80
2022-10-04T13:06:16.771Z,2.80
2022-10-04T13:09:37.116Z,2.63
2022-10-04T13:12:59.811Z,2.60
2022-10-04T13:19:33.765Z,2.35
2022-10-04T13:22:57.905Z,2.47
2022-10-04T13:26:15.514Z,2.60
2022-10-04T13:29:35.843Z,1.70
2022-10-04T13:33:00.416Z,2.33
2022-10-04T13:36:24.036Z,2.67
2022-10-04T13:39:32.388Z,1.98
2022-10-04T13:42:42.910Z,2.00
2022-10-04T13:45:44.402Z,2.28
2022-10-04T13:48:56.303Z,1.70
2022-10-04T13:52:20.531Z,2.10
2022-10-04T13:55:59.738Z,2.40
2022-10-04T13:59:04.470Z,2.45
2022-10-04T14:02:24.885Z,1.70
2022-10-04T14:05:39.292Z,2.20
2022-10-04T14:08:48.287Z,1.83
2022-10-04T14:11:54.035Z,1.80
2022-10-04T14:14:55.476Z,1.88
2022-10-04T14:18:01.149Z,2.00
2022-10-04T14:21:21.048Z,1.83
2022-10-04T14:24:40.748Z,1.75
2022-10-04T14:27:43.358Z,1.70
2022-10-04T14:30:47.654Z,1.50
2022-10-04T14:33:48.922Z,1.90
2022-10-04T14:36:56.331Z,2.20
2022-10-04T14:40:16.502Z,1.77
2022-10-04T14:43:17.768Z,2.10
2022-10-04T14:46:19.050Z,2.00
2022-10-04T14:49:25.947Z,1.77
2022-10-04T14:52:27.197Z,1.90
2022-10-04T14:55:49.611Z,2.10
2022-10-04T14:58:59.602Z,1.77
2022-10-04T15:02:00.848Z,2.00
2022-10-04T15:05:08.165Z,1.77
2022-10-04T15:08:21.578Z,1.73
2022-10-04T15:11:40.543Z,1.60
2022-10-04T15:14:45.157Z,1.77
2022-10-04T15:17:49.630Z,2.08
2022-10-04T15:20:54.934Z,1.60
2022-10-04T15:24:16.425Z,1.75
2022-10-04T15:27:32.814Z,1.80
2022-10-04T15:30:36.890Z,1.80
2022-10-04T15:33:55.567Z,2.00
2022-10-04T15:37:03.019Z,1.83
2022-10-04T15:40:04.288Z,1.52
2022-10-04T15:43:20.638Z,2.05
2022-10-04T15:46:40.397Z,1.98
2022-10-04T15:49:52.969Z,1.95
2022-10-04T15:53:03.383Z,1.90
2022-10-04T15:56:08.356Z,2.28
2022-10-04T15:59:16.408Z,2.00
2022-10-04T16:02:36.639Z,2.40
2022-10-04T16:05:43.967Z,2.10
2022-10-04T16:09:00.205Z,2.50
2022-10-04T16:12:20.503Z,2.25
2022-10-04T16:15:32.870Z,2.25
2022-10-04T16:18:53.139Z,2.88
2022-10-04T16:21:55.175Z,2.83
2022-10-04T16:25:19.440Z,3.08
2022-10-04T16:28:29.456Z,2.22
2022-10-04T16:31:52.315Z,2.35
2022-10-04T16:35:17.754Z,3.15
2022-10-04T16:38:26.360Z,2.45
2022-10-04T16:41:33.897Z,2.22
2022-10-04T16:44:38.422Z,2.80
2022-10-04T16:47:52.602Z,3.28
2022-10-04T16:51:13.043Z,2.38
2022-10-04T16:54:29.784Z,3.40
2022-10-04T16:57:31.124Z,2.97
2022-10-04T17:00:35.405Z,2.53
2022-10-04T17:03:39.087Z,2.17
2022-10-04T17:06:49.058Z,2.58
2022-10-04T17:09:57.053Z,3.08
2022-10-04T17:13:01.307Z,2.30
2022-10-04T17:16:05.559Z,3.17
2022-10-04T17:19:15.767Z,2.60
2022-10-04T17:22:41.367Z,2.63
2022-10-04T17:26:02.890Z,2.83
2022-10-04T17:29:16.271Z,3.95
2022-10-04T17:32:26.169Z,3.15
2022-10-04T17:35:46.968Z,2.72
2022-10-04T17:38:51.386Z,2.78
2022-10-04T17:41:52.622Z,3.47
2022-10-04T17:45:20.035Z,3.20
2022-10-04T17:48:42.344Z,2.78
2022-10-04T17:52:04.863Z,3.30
2022-10-04T17:55:18.690Z,3.30
2022-10-04T17:58:24.084Z,3.30
2022-10-04T18:01:43.997Z,3.85
2022-10-04T18:04:49.438Z,3.58
2022-10-04T18:07:59.390Z,3.30
2022-10-04T18:11:00.959Z,3.28
2022-10-04T18:14:25.610Z,4.03
2022-10-04T18:17:38.624Z,5.88
2022-10-04T18:20:45.439Z,5.07
2022-10-04T18:23:57.291Z,4.72
2022-10-04T18:27:04.938Z,5.13
2022-10-04T18:30:17.006Z,4.50
2022-10-04T18:33:26.139Z,4.65
2022-10-04T18:36:31.910Z,4.97
2022-10-04T18:39:44.092Z,4.60
2022-10-04T18:42:53.400Z,4.35
2022-10-04T18:46:02.367Z,4.13
2022-10-04T18:49:27.063Z,3.60
2022-10-04T18:52:46.647Z,2.97
2022-10-04T18:56:06.464Z,3.17
2022-10-04T18:59:56.695Z,2.60
2022-10-04T19:03:00.780Z,3.53
2022-10-04T19:06:20.830Z,3.35
2022-10-04T19:09:49.440Z,3.17
2022-10-04T19:12:59.761Z,3.72
2022-10-04T19:16:10.146Z,2.70
2022-10-04T19:19:26.765Z,3.22
2022-10-04T19:22:43.396Z,3.58
2022-10-04T19:26:17.724Z,3.53
2022-10-04T19:29:18.121Z,3.85
2022-10-04T19:32:31.766Z,4.00
2022-10-04T19:35:33.090Z,4.05
2022-10-04T19:38:37.285Z,3.63
2022-10-04T19:41:41.582Z,3.45
2022-10-04T19:44:52.137Z,4.28
2022-10-04T19:47:58.433Z,4.97
2022-10-04T19:51:12.850Z,3.60
2022-10-04T19:54:16.122Z,3.50
2022-10-04T19:57:21.437Z,3.58
2022-10-04T20:00:22.830Z,3.88
2022-10-04T20:03:24.196Z,4.03
2022-10-04T20:06:26.183Z,4.43
2022-10-04T20:09:31.318Z,4.07
2022-10-04T20:12:42.655Z,4.68
2022-10-04T20:15:46.399Z,3.97
2022-10-04T20:18:51.667Z,4.00
2022-10-04T20:21:52.956Z,4.15
2022-10-04T20:24:56.165Z,4.32
2022-10-04T20:28:01.800Z,3.83
2022-10-04T20:31:06.691Z,3.90
2022-10-04T20:34:43.541Z,3.72
2022-10-04T20:37:44.860Z,4.28
2022-10-04T20:40:46.189Z,3.90
2022-10-04T20:44:03.776Z,4.18
2022-10-04T20:47:05.078Z,3.42
2022-10-04T20:50:09.358Z,3.50
2022-10-04T20:53:15.549Z,3.25
2022-10-04T20:56:23.962Z,4.03
2022-10-04T20:59:25.284Z,3.83
2022-10-04T21:02:28.645Z,3.78
2022-10-04T21:05:29.969Z,3.30
2022-10-04T21:08:31.400Z,3.35
2022-10-04T21:11:45.619Z,3.35
2022-10-04T21:15:01.013Z,3.58
2022-10-04T21:18:07.124Z,3.58
2022-10-04T21:21:08.369Z,3.95
2022-10-04T21:24:35.997Z,3.75
2022-10-04T21:27:43.406Z,3.72
2022-10-04T21:30:44.696Z,3.53
2022-10-04T21:33:45.918Z,3.20
2022-10-04T21:36:47.409Z,3.55
2022-10-04T21:39:49.017Z,3.17
2022-10-04T21:42:50.356Z,3.85
2022-10-04T21:45:51.620Z,2.88
2022-10-04T21:48:52.929Z,3.40
2022-10-04T21:51:54.187Z,3.38
2022-10-04T21:54:55.449Z,3.30
2022-10-04T21:57:56.688Z,3.25
2022-10-04T22:00:58.015Z,3.70
2022-10-04T22:03:59.302Z,4.00
2022-10-04T22:07:00.535Z,3.55
2022-10-04T22:10:01.805Z,3.38
2022-10-04T22:13:03.055Z,3.55
2022-10-04T22:16:04.714Z,3.70
2022-10-04T22:19:06.025Z,3.97
2022-10-04T22:22:12.172Z,3.50
2022-10-04T22:25:14.930Z,3.80
2022-10-04T22:28:23.825Z,4.10
2022-10-04T22:31:26.170Z,3.80
2022-10-04T22:34:27.471Z,3.40
2022-10-04T22:37:30.966Z,3.08
2022-10-04T22:40:32.927Z,4.22
2022-10-04T22:43:34.186Z,3.25
2022-10-04T22:46:37.354Z,4.30
2022-10-04T22:49:41.004Z,3.47
2022-10-04T22:52:42.261Z,3.20
2022-10-04T22:55:43.482Z,3.67
2022-10-04T22:58:44.875Z,3.30
2022-10-04T23:01:46.933Z,3.17
2022-10-04T23:04:52.253Z,3.47
2022-10-04T23:07:53.642Z,3.22
2022-10-04T23:10:55.625Z,3.60
2022-10-04T23:13:57.223Z,3.85
2022-10-04T23:16:58.487Z,2.97
2022-10-04T23:20:09.071Z,3.47
2022-10-04T23:23:21.007Z,3.85
2022-10-04T23:26:23.750Z,3.45
2022-10-04T23:29:26.569Z,3.70
2022-10-04T23:32:28.346Z,3.03
2022-10-04T23:35:31.138Z,2.88
2022-10-04T23:38:32.943Z,3.72
2022-10-04T23:41:34.191Z,3.33
2022-10-04T23:44:36.909Z,3.90
2022-10-04T23:47:38.141Z,3.35
2022-10-04T23:50:40.038Z,3.78
2022-10-04T23:53:42.051Z,3.22
2022-10-04T23:56:44.387Z,3.22
2022-10-04T23:59:46.023Z,3.17
